Time;durP1;ratioP1;P1;durP2;ratioP2;P2;SDS_P1;SDS_P2;PMS_P1;PMS_P2;Temp;Humidity;BMP_temperature;BMP_pressure;BME280_temperature;BME280_humidity;BME280_pressure;Samples;Min_cycle;Max_cycle;Signal;HPM_P1;HPM_P2
2021/08/03 00:02:25;;;;;;;2.42;0.85;;;15.70;99.90;;;;;;5047183;28;20151;-43
2021/08/03 00:04:55;;;;;;;1.88;0.70;;;15.70;99.90;;;;;;5047430;28;20071;-43
2021/08/03 00:07:23;;;;;;;1.75;0.90;;;15.70;99.90;;;;;;5047755;28;20047;-42
2021/08/03 00:09:51;;;;;;;1.95;0.80;;;15.70;99.90;;;;;;5047548;28;20029;-43
2021/08/03 00:12:17;;;;;;;0.80;0.70;;;15.70;99.90;;;;;;5047582;28;20024;-42
2021/08/03 00:14:47;;;;;;;1.10;0.80;;;15.80;99.90;;;;;;5046572;28;20025;-42
2021/08/03 00:17:24;;;;;;;3.20;0.93;;;15.80;99.90;;;;;;5048017;28;20028;-42
2021/08/03 00:19:51;;;;;;;2.00;1.10;;;15.90;99.90;;;;;;5047875;28;20476;-41
2021/08/03 00:22:17;;;;;;;1.70;0.95;;;15.90;99.90;;;;;;5048257;28;20017;-42
2021/08/03 00:24:43;;;;;;;1.55;0.80;;;15.90;99.90;;;;;;5049548;28;20062;-43
2021/08/03 00:27:10;;;;;;;1.35;0.95;;;15.90;99.90;;;;;;5050755;28;20091;-42
2021/08/03 00:29:37;;;;;;;2.30;0.82;;;15.90;99.90;;;;;;5050795;28;20161;-43
2021/08/03 00:32:04;;;;;;;3.33;1.00;;;15.90;99.90;;;;;;5050819;28;20025;-42
2021/08/03 00:34:30;;;;;;;1.48;0.90;;;15.80;99.90;;;;;;5050100;28;20086;-42
2021/08/03 00:36:56;;;;;;;1.45;1.00;;;15.80;99.90;;;;;;5051084;28;20132;-40
2021/08/03 00:39:25;;;;;;;1.25;0.90;;;15.80;99.90;;;;;;5050194;28;20041;-43
2021/08/03 00:41:56;;;;;;;1.25;0.90;;;15.70;99.90;;;;;;5051453;28;20024;-42
2021/08/03 00:44:42;;;;;;;3.47;1.20;;;15.70;99.90;;;;;;5050689;28;20518;-42
2021/08/03 00:47:09;;;;;;;1.08;0.88;;;15.70;99.90;;;;;;5050246;28;20832;-42
2021/08/03 00:49:35;;;;;;;1.63;0.85;;;15.70;99.90;;;;;;5050726;28;20483;-43
2021/08/03 00:52:02;;;;;;;1.40;1.00;;;15.70;99.90;;;;;;5050797;28;20021;-42
2021/08/03 00:54:28;;;;;;;1.90;1.00;;;15.60;99.90;;;;;;5049936;28;20070;-42
2021/08/03 00:56:53;;;;;;;0.90;0.80;;;15.60;99.90;;;;;;5050329;28;20420;-42
2021/08/03 00:59:19;;;;;;;2.28;0.90;;;15.60;99.90;;;;;;5050416;28;20427;-42
2021/08/03 01:01:45;;;;;;;2.10;0.95;;;15.60;99.90;;;;;;5049845;28;20381;-42
2021/08/03 01:04:11;;;;;;;1.27;0.95;;;15.60;99.90;;;;;;5050685;28;20021;-42
2021/08/03 01:06:48;;;;;;;2.50;1.00;;;15.50;99.90;;;;;;5050308;28;20020;-42
2021/08/03 01:09:24;;;;;;;2.15;0.82;;;15.50;99.90;;;;;;5050191;28;20078;-42
2021/08/03 01:11:58;;;;;;;1.50;0.77;;;15.50;99.90;;;;;;5050371;28;20017;-41
2021/08/03 01:14:41;;;;;;;2.00;0.98;;;15.40;99.90;;;;;;5050177;28;20132;-42
2021/08/03 01:17:25;;;;;;;1.30;0.75;;;15.40;99.90;;;;;;5050383;28;20049;-42
2021/08/03 01:20:00;;;;;;;1.55;1.00;;;15.40;99.90;;;;;;5050818;28;20044;-42
2021/08/03 01:22:56;;;;;;;1.67;0.90;;;15.30;99.90;;;;;;5049574;28;20385;-41
2021/08/03 01:25:41;;;;;;;0.93;0.70;;;15.30;99.90;;;;;;5049933;28;20028;-42
2021/08/03 01:28:16;;;;;;;2.28;0.85;;;15.30;99.90;;;;;;5049480;28;20075;-43
2021/08/03 01:30:52;;;;;;;1.85;0.80;;;15.40;99.90;;;;;;5029512;28;20148;-42
2021/08/03 01:33:22;;;;;;;1.27;0.75;;;15.40;99.90;;;;;;5045717;28;20032;-42
2021/08/03 01:35:49;;;;;;;1.02;0.70;;;15.30;99.90;;;;;;5049845;28;20037;-41
2021/08/03 01:38:19;;;;;;;1.20;0.90;;;15.30;99.90;;;;;;5050940;28;20060;-42
2021/08/03 01:40:49;;;;;;;1.67;0.95;;;15.30;99.90;;;;;;5049720;28;20033;-40
2021/08/03 01:43:15;;;;;;;0.80;0.80;;;15.30;99.90;;;;;;5049537;28;20764;-43
2021/08/03 01:45:43;;;;;;;1.42;1.00;;;15.30;99.90;;;;;;5050296;28;20029;-42
2021/08/03 01:48:13;;;;;;;2.30;0.77;;;15.30;99.90;;;;;;5049706;28;20535;-42
2021/08/03 01:50:40;;;;;;;2.47;0.93;;;15.30;99.90;;;;;;5048924;28;20048;-40
2021/08/03 01:53:10;;;;;;;2.08;0.90;;;15.20;99.90;;;;;;5049828;28;20036;-40
2021/08/03 01:55:41;;;;;;;1.70;0.90;;;15.20;99.90;;;;;;5048816;28;20025;-43
2021/08/03 01:58:11;;;;;;;1.67;0.75;;;15.20;99.90;;;;;;5049235;28;20033;-42
2021/08/03 02:00:42;;;;;;;2.35;0.90;;;15.20;99.90;;;;;;5050286;28;20025;-43
2021/08/03 02:03:14;;;;;;;1.50;0.90;;;15.20;99.90;;;;;;5048981;28;20021;-43
2021/08/03 02:05:43;;;;;;;4.72;0.98;;;15.10;99.90;;;;;;5048759;28;20658;-42
2021/08/03 02:08:10;;;;;;;1.27;0.98;;;15.10;99.90;;;;;;5049335;28;20492;-42
2021/08/03 02:10:38;;;;;;;1.02;0.90;;;15.00;99.90;;;;;;5048690;28;20357;-43
2021/08/03 02:13:06;;;;;;;2.58;0.90;;;15.00;99.90;;;;;;5049717;28;20029;-43
2021/08/03 02:15:35;;;;;;;1.33;1.10;;;15.00;99.90;;;;;;5048354;28;20358;-41
2021/08/03 02:18:00;;;;;;;2.25;1.05;;;15.00;99.90;;;;;;5049029;28;20087;-43
2021/08/03 02:20:33;;;;;;;1.75;0.90;;;15.00;99.90;;;;;;5049024;28;20020;-42
2021/08/03 02:23:04;;;;;;;2.78;1.33;;;15.10;99.90;;;;;;5049162;28;20072;-43
2021/08/03 02:25:30;;;;;;;3.17;1.10;;;15.00;99.90;;;;;;5047881;28;20024;-42
2021/08/03 02:27:57;;;;;;;2.65;1.00;;;14.90;99.90;;;;;;5049566;28;20017;-42
2021/08/03 02:30:24;;;;;;;0.93;0.75;;;14.90;99.90;;;;;;5049136;28;20021;-42
2021/08/03 02:32:59;;;;;;;2.63;0.77;;;14.90;99.90;;;;;;5049567;28;20028;-43
2021/08/03 02:35:30;;;;;;;2.13;1.05;;;14.90;99.90;;;;;;5048526;28;20029;-42
2021/08/03 02:38:00;;;;;;;1.73;0.90;;;14.90;99.90;;;;;;5049073;28;20512;-42
2021/08/03 02:40:26;;;;;;;1.52;1.00;;;14.90;99.90;;;;;;5047643;28;20021;-43
2021/08/03 02:42:54;;;;;;;2.40;0.90;;;14.90;99.90;;;;;;5049379;28;20516;-43
2021/08/03 02:45:20;;;;;;;2.15;1.00;;;14.80;99.90;;;;;;5047816;28;20435;-41
2021/08/03 02:47:52;;;;;;;1.98;0.85;;;14.80;99.90;;;;;;5048729;28;20107;-41
2021/08/03 02:50:20;;;;;;;2.33;0.80;;;14.80;99.90;;;;;;5048881;28;20473;-42
2021/08/03 02:52:51;;;;;;;2.17;1.05;;;14.70;99.90;;;;;;5048110;28;20029;-43
2021/08/03 02:55:22;;;;;;;1.50;0.80;;;14.70;99.90;;;;;;5049194;28;20017;-43
2021/08/03 02:57:56;;;;;;;1.20;0.80;;;14.70;99.90;;;;;;5048977;28;20472;-43
2021/08/03 03:00:24;;;;;;;2.03;1.15;;;14.70;99.90;;;;;;5048052;28;20040;-44
2021/08/03 03:02:51;;;;;;;1.52;0.90;;;14.60;99.90;;;;;;5048768;28;20892;-39
2021/08/03 03:05:27;;;;;;;1.65;1.00;;;14.60;99.90;;;;;;5048705;28;20100;-42
2021/08/03 03:08:05;;;;;;;2.28;0.90;;;14.60;99.90;;;;;;5047909;28;20048;-41
2021/08/03 03:10:35;;;;;;;2.70;1.00;;;14.60;99.90;;;;;;5048301;28;20028;-42
2021/08/03 03:13:08;;;;;;;1.35;0.80;;;14.60;99.90;;;;;;5048993;28;20029;-42
2021/08/03 03:15:41;;;;;;;2.45;0.98;;;14.50;99.90;;;;;;5048119;28;20031;-41
2021/08/03 03:18:11;;;;;;;1.98;0.90;;;14.50;99.90;;;;;;5038554;28;20390;-41
2021/08/03 03:20:39;;;;;;;2.20;0.80;;;14.50;99.90;;;;;;5048806;28;20375;-42
2021/08/03 03:23:11;;;;;;;1.35;0.88;;;14.50;99.90;;;;;;5048948;28;20404;-42
2021/08/03 03:25:39;;;;;;;1.23;1.00;;;14.50;99.90;;;;;;5047892;28;20363;-41
2021/08/03 03:28:08;;;;;;;2.35;1.00;;;14.50;99.90;;;;;;5048773;28;20045;-42
2021/08/03 03:30:36;;;;;;;1.48;0.90;;;14.50;99.90;;;;;;5048216;28;20056;-42
2021/08/03 03:33:05;;;;;;;1.50;0.90;;;14.50;99.90;;;;;;5044529;28;20499;-42
2021/08/03 03:35:32;;;;;;;1.38;0.90;;;14.50;99.90;;;;;;5047381;28;20040;-39
2021/08/03 03:37:59;;;;;;;3.42;1.10;;;14.60;99.90;;;;;;5048603;28;20037;-41
2021/08/03 03:40:25;;;;;;;1.77;1.25;;;14.60;99.90;;;;;;5047247;28;20135;-42
2021/08/03 03:42:54;;;;;;;1.20;0.98;;;14.60;99.90;;;;;;5047570;28;20079;-42
2021/08/03 03:45:20;;;;;;;3.10;0.88;;;14.60;99.90;;;;;;5048385;28;20079;-42
2021/08/03 03:48:00;;;;;;;1.58;1.00;;;14.60;99.90;;;;;;5047479;28;20021;-41
2021/08/03 03:50:40;;;;;;;2.17;1.00;;;14.60;99.90;;;;;;5027901;28;20025;-41
2021/08/03 03:53:15;;;;;;;2.35;1.00;;;14.60;99.90;;;;;;5044816;28;20087;-44
2021/08/03 03:55:54;;;;;;;2.17;0.93;;;14.60;99.90;;;;;;5029031;28;20040;-42
2021/08/03 03:58:29;;;;;;;2.53;0.93;;;14.60;99.90;;;;;;5044465;28;20423;-42
2021/08/03 04:00:56;;;;;;;0.88;0.88;;;14.50;99.90;;;;;;5053370;28;20428;-39
2021/08/03 04:03:26;;;;;;;2.88;1.30;;;14.50;99.90;;;;;;5051116;28;20017;-42
2021/08/03 04:05:55;;;;;;;1.23;0.98;;;14.40;99.90;;;;;;5053129;28;20025;-42
2021/08/03 04:08:21;;;;;;;4.03;1.20;;;14.40;99.90;;;;;;5051345;28;20052;-42
2021/08/03 04:10:49;;;;;;;1.42;1.00;;;14.40;99.90;;;;;;5051181;28;20131;-41
2021/08/03 04:13:19;;;;;;;5.07;1.40;;;14.40;99.90;;;;;;5052021;28;20035;-43
2021/08/03 04:15:45;;;;;;;5.15;1.98;;;14.40;99.90;;;;;;5051915;28;20048;-43
2021/08/03 04:18:11;;;;;;;2.58;1.27;;;14.30;99.90;;;;;;5050847;28;20208;-42
2021/08/03 04:20:36;;;;;;;2.00;1.38;;;14.30;99.90;;;;;;5051280;28;20029;-43
2021/08/03 04:23:02;;;;;;;1.67;1.05;;;14.30;99.90;;;;;;5051962;28;20052;-41
2021/08/03 04:25:27;;;;;;;2.58;1.20;;;14.30;99.90;;;;;;5050142;28;20019;-43
2021/08/03 04:27:53;;;;;;;2.83;1.40;;;14.30;99.90;;;;;;5051760;28;20029;-43
2021/08/03 04:30:18;;;;;;;1.75;1.25;;;14.20;99.90;;;;;;5051271;28;20017;-43
2021/08/03 04:32:44;;;;;;;1.92;1.08;;;14.20;99.90;;;;;;5050794;28;20613;-43
2021/08/03 04:35:14;;;;;;;2.40;1.02;;;14.20;99.90;;;;;;5051067;28;20021;-43
2021/08/03 04:37:45;;;;;;;2.92;1.13;;;14.10;99.90;;;;;;5050832;28;20048;-43
2021/08/03 04:40:13;;;;;;;1.15;1.00;;;14.10;99.90;;;;;;5049780;28;20021;-43
2021/08/03 04:42:40;;;;;;;2.90;1.50;;;14.10;99.90;;;;;;5051348;28;20365;-43
2021/08/03 04:45:07;;;;;;;1.88;1.42;;;14.10;99.90;;;;;;5051485;28;20025;-43
2021/08/03 04:47:38;;;;;;;2.58;1.65;;;14.10;99.90;;;;;;5051494;28;20028;-43
2021/08/03 04:50:09;;;;;;;2.58;1.52;;;14.10;99.90;;;;;;5051571;28;20479;-43
2021/08/03 04:52:34;;;;;;;2.58;1.60;;;14.10;99.90;;;;;;5050969;28;20024;-42
2021/08/03 04:55:01;;;;;;;1.80;1.42;;;14.10;99.90;;;;;;5050543;28;20032;-42
2021/08/03 04:57:26;;;;;;;2.20;1.40;;;14.10;99.90;;;;;;5050760;28;20419;-42
2021/08/03 05:00:05;;;;;;;2.15;1.30;;;14.10;99.90;;;;;;5050707;28;20468;-42
2021/08/03 05:02:30;;;;;;;3.42;1.33;;;14.20;99.90;;;;;;5050450;28;20515;-43
2021/08/03 05:04:56;;;;;;;3.95;1.40;;;14.20;99.90;;;;;;5051270;28;20033;-43
2021/08/03 05:07:22;;;;;;;2.33;1.65;;;14.30;99.90;;;;;;5049146;28;20499;-43
2021/08/03 05:10:00;;;;;;;1.63;1.52;;;14.30;99.90;;;;;;5049820;28;20460;-41
2021/08/03 05:12:26;;;;;;;3.90;1.42;;;14.40;99.90;;;;;;5049350;28;20422;-42
2021/08/03 05:14:58;;;;;;;2.45;1.40;;;14.40;99.90;;;;;;5050880;28;20021;-43
2021/08/03 05:17:25;;;;;;;3.10;1.40;;;14.50;99.90;;;;;;5050261;28;20415;-43
2021/08/03 05:19:57;;;;;;;2.58;1.63;;;14.50;99.90;;;;;;5050923;28;20082;-41
2021/08/03 05:22:26;;;;;;;2.50;1.60;;;14.60;99.90;;;;;;5049877;28;20071;-42
2021/08/03 05:24:53;;;;;;;3.08;1.67;;;14.70;99.90;;;;;;5050659;28;20017;-43
2021/08/03 05:27:21;;;;;;;2.08;1.65;;;14.70;99.90;;;;;;5050198;28;20176;-42
2021/08/03 05:29:47;;;;;;;3.70;1.63;;;14.80;99.90;;;;;;5049631;28;20407;-43
2021/08/03 05:32:14;;;;;;;1.75;1.50;;;14.80;99.90;;;;;;5050653;28;20476;-42
2021/08/03 05:34:39;;;;;;;3.17;1.80;;;14.90;99.90;;;;;;5049684;28;20112;-43
2021/08/03 05:37:05;;;;;;;2.15;1.80;;;15.00;99.90;;;;;;5050836;28;20156;-43
2021/08/03 05:39:34;;;;;;;2.85;1.80;;;15.10;99.90;;;;;;5050684;28;20075;-43
2021/08/03 05:42:02;;;;;;;3.40;1.90;;;15.20;99.90;;;;;;5051382;28;20455;-43
2021/08/03 05:44:33;;;;;;;3.40;1.77;;;15.30;99.90;;;;;;5050766;28;20519;-42
2021/08/03 05:47:02;;;;;;;2.55;1.80;;;15.40;99.90;;;;;;5056483;28;20563;-42
2021/08/03 05:49:31;;;;;;;2.63;1.60;;;15.50;99.90;;;;;;5049583;28;20537;-42
2021/08/03 05:52:02;;;;;;;4.20;1.70;;;15.50;99.90;;;;;;5050410;28;20836;-42
2021/08/03 05:54:28;;;;;;;2.85;1.27;;;15.50;99.90;;;;;;5047346;28;20374;-42
2021/08/03 05:56:54;;;;;;;3.17;2.10;;;15.50;99.90;;;;;;5048572;28;20032;-42
2021/08/03 05:59:22;;;;;;;1.95;1.55;;;15.60;99.90;;;;;;5049593;28;20037;-43
2021/08/03 06:01:50;;;;;;;1.98;1.50;;;15.60;99.90;;;;;;5050822;28;20492;-41
2021/08/03 06:04:16;;;;;;;4.20;1.60;;;15.60;99.90;;;;;;5047059;28;20061;-41
2021/08/03 06:06:49;;;;;;;2.33;1.83;;;15.60;99.90;;;;;;5047356;28;20311;-42
2021/08/03 06:09:35;;;;;;;3.28;1.60;;;15.60;99.90;;;;;;5049177;28;20475;-42
2021/08/03 06:12:18;;;;;;;2.75;1.70;;;15.70;99.90;;;;;;5048312;28;20432;-42
2021/08/03 06:15:02;;;;;;;2.63;1.92;;;15.70;99.90;;;;;;5048388;28;20439;-42
2021/08/03 06:17:50;;;;;;;4.43;2.28;;;15.70;99.90;;;;;;5047286;28;20396;-42
2021/08/03 06:20:32;;;;;;;2.95;2.00;;;15.80;99.90;;;;;;5047937;28;20086;-42
2021/08/03 06:23:02;;;;;;;3.10;2.10;;;15.80;99.90;;;;;;5043286;28;20495;-42
2021/08/03 06:25:29;;;;;;;2.45;1.80;;;15.80;99.90;;;;;;5048119;28;20017;-41
2021/08/03 06:27:56;;;;;;;2.40;1.80;;;15.90;99.90;;;;;;5047655;28;20441;-41
2021/08/03 06:30:22;;;;;;;2.67;2.00;;;15.90;99.90;;;;;;5048187;28;20391;-40
2021/08/03 06:32:48;;;;;;;2.88;1.70;;;15.90;99.90;;;;;;5048790;28;20033;-42
2021/08/03 06:35:16;;;;;;;4.10;2.10;;;16.00;99.90;;;;;;5051977;28;20445;-40
2021/08/03 06:37:44;;;;;;;2.47;1.77;;;16.00;99.90;;;;;;5050688;28;20422;-41
2021/08/03 06:40:11;;;;;;;2.88;1.70;;;16.10;99.90;;;;;;5050890;28;20796;-41
2021/08/03 06:42:37;;;;;;;3.92;2.03;;;16.10;99.90;;;;;;5050382;28;20245;-42
2021/08/03 06:45:08;;;;;;;2.22;1.73;;;16.10;99.90;;;;;;5050677;28;20448;-43
2021/08/03 06:48:26;;;;;;;4.57;1.92;;;16.20;99.90;;;;;;5051433;28;20025;-41
2021/08/03 06:51:04;;;;;;;3.58;2.10;;;16.30;99.90;;;;;;5044730;28;20029;-42
2021/08/03 06:53:35;;;;;;;2.50;1.80;;;16.30;99.90;;;;;;5046122;28;20021;-42
2021/08/03 06:56:03;;;;;;;3.35;1.77;;;16.30;99.90;;;;;;5048079;28;20025;-40
2021/08/03 06:58:42;;;;;;;1.73;1.60;;;16.40;99.90;;;;;;5049819;28;20801;-42
2021/08/03 07:01:16;;;;;;;2.75;2.05;;;16.40;99.90;;;;;;5050095;28;20033;-41
2021/08/03 07:03:47;;;;;;;4.20;2.05;;;16.50;99.90;;;;;;5050539;28;20426;-42
2021/08/03 07:06:17;;;;;;;3.72;2.15;;;16.50;99.90;;;;;;5049619;28;20109;-40
2021/08/03 07:08:44;;;;;;;2.92;1.85;;;16.50;99.90;;;;;;5048992;28;20021;-42
2021/08/03 07:11:12;;;;;;;4.45;2.25;;;16.50;99.90;;;;;;5051367;28;20017;-41
2021/08/03 07:13:42;;;;;;;4.82;2.35;;;16.50;99.90;;;;;;5049157;28;20063;-42
2021/08/03 07:16:10;;;;;;;4.32;2.45;;;16.50;99.90;;;;;;5050816;28;20211;-41
2021/08/03 07:18:36;;;;;;;2.97;2.28;;;16.50;99.90;;;;;;5048176;28;20796;-42
2021/08/03 07:21:06;;;;;;;3.70;2.78;;;16.60;99.90;;;;;;5049157;28;20017;-42
2021/08/03 07:23:35;;;;;;;5.25;2.70;;;16.60;99.90;;;;;;5048548;28;20051;-42
2021/08/03 07:26:03;;;;;;;3.88;2.80;;;16.70;99.90;;;;;;5048782;28;20018;-41
2021/08/03 07:28:31;;;;;;;2.85;2.42;;;16.70;99.90;;;;;;5049687;28;20032;-42
2021/08/03 07:31:00;;;;;;;4.47;2.80;;;16.70;99.90;;;;;;5050222;28;20031;-42
2021/08/03 07:33:29;;;;;;;6.03;3.35;;;16.70;99.90;;;;;;5048089;28;20387;-41
2021/08/03 07:35:56;;;;;;;4.65;3.40;;;16.70;99.90;;;;;;5050996;28;20389;-42
2021/08/03 07:38:22;;;;;;;4.07;3.45;;;16.80;99.90;;;;;;5051789;28;20025;-42
2021/08/03 07:40:52;;;;;;;4.93;3.40;;;16.80;99.90;;;;;;5052241;28;20024;-43
2021/08/03 07:43:20;;;;;;;5.00;3.90;;;16.80;99.90;;;;;;5055439;28;20025;-41
2021/08/03 07:45:49;;;;;;;5.97;4.10;;;16.90;99.90;;;;;;5049082;28;20114;-41
2021/08/03 07:48:19;;;;;;;5.75;4.47;;;16.90;99.90;;;;;;5054011;28;20396;-42
2021/08/03 07:50:47;;;;;;;5.53;4.65;;;17.00;99.90;;;;;;5052110;28;20096;-40
2021/08/03 07:53:16;;;;;;;6.70;5.28;;;17.10;99.90;;;;;;5054739;28;20379;-42
2021/08/03 07:55:44;;;;;;;7.07;5.40;;;17.20;99.90;;;;;;5053257;28;20017;-42
2021/08/03 07:58:10;;;;;;;11.18;6.93;;;17.30;99.90;;;;;;5052937;28;20025;-42
2021/08/03 08:00:36;;;;;;;7.35;5.40;;;17.40;99.90;;;;;;5051570;28;20361;-43
2021/08/03 08:03:02;;;;;;;7.80;6.03;;;17.40;99.90;;;;;;5053364;28;20483;-42
2021/08/03 08:05:28;;;;;;;9.55;8.55;;;17.50;99.90;;;;;;5051493;28;20020;-43
2021/08/03 08:07:57;;;;;;;10.32;9.20;;;17.60;99.90;;;;;;5052999;28;20141;-43
2021/08/03 08:10:24;;;;;;;11.45;9.80;;;17.60;99.90;;;;;;5050185;28;20466;-40
2021/08/03 08:12:50;;;;;;;11.45;9.15;;;17.60;99.90;;;;;;5052345;28;20046;-42
2021/08/03 08:15:16;;;;;;;10.55;8.80;;;17.70;99.90;;;;;;5052055;28;20391;-42
2021/08/03 08:17:45;;;;;;;9.55;8.52;;;17.70;99.90;;;;;;5050784;28;20032;-42
2021/08/03 08:20:17;;;;;;;9.90;8.02;;;17.80;99.90;;;;;;5051531;28;20025;-43
2021/08/03 08:22:43;;;;;;;12.43;8.52;;;17.80;99.90;;;;;;5045525;28;20025;-43
2021/08/03 08:25:21;;;;;;;10.73;8.15;;;17.90;99.90;;;;;;5051047;28;20373;-42
2021/08/03 08:27:46;;;;;;;12.10;7.90;;;18.00;99.90;;;;;;5051224;28;20055;-41
2021/08/03 08:30:15;;;;;;;10.15;6.60;;;18.00;99.90;;;;;;5051824;28;20025;-42
2021/08/03 08:32:43;;;;;;;9.15;6.05;;;18.10;99.90;;;;;;5050192;28;20029;-42
2021/08/03 08:35:10;;;;;;;8.77;6.10;;;18.10;99.90;;;;;;5051519;28;20516;-43
2021/08/03 08:37:36;;;;;;;7.97;6.15;;;18.20;99.90;;;;;;5049994;28;20060;-41
2021/08/03 08:40:02;;;;;;;9.02;5.95;;;18.20;99.90;;;;;;5052280;28;20488;-42
2021/08/03 08:42:29;;;;;;;9.30;6.60;;;18.30;99.90;;;;;;5051223;28;20021;-42
2021/08/03 08:44:56;;;;;;;7.53;5.97;;;18.50;99.90;;;;;;5051087;28;20107;-43
2021/08/03 08:47:26;;;;;;;8.32;6.13;;;18.60;99.90;;;;;;5050146;28;20603;-42
2021/08/03 08:50:02;;;;;;;8.57;7.20;;;18.70;99.90;;;;;;5052353;28;20024;-43
2021/08/03 08:52:33;;;;;;;9.82;7.10;;;18.80;99.90;;;;;;5052284;28;20013;-43
2021/08/03 08:55:00;;;;;;;9.85;6.85;;;19.00;99.90;;;;;;5052654;28;20033;-43
2021/08/03 08:57:28;;;;;;;10.77;7.95;;;19.10;99.90;;;;;;5053235;28;20108;-41
2021/08/03 08:59:59;;;;;;;12.77;7.90;;;19.20;99.90;;;;;;5051931;28;20384;-42
2021/08/03 09:02:44;;;;;;;12.50;7.22;;;19.30;99.90;;;;;;5051117;28;20099;-41
2021/08/03 09:05:33;;;;;;;9.23;7.47;;;19.40;99.90;;;;;;5051841;28;20079;-43
2021/08/03 09:08:01;;;;;;;10.13;7.13;;;19.50;99.80;;;;;;5051974;28;20127;-42
2021/08/03 09:10:35;;;;;;;9.98;7.05;;;19.60;99.80;;;;;;5050344;28;20037;-43
2021/08/03 09:13:05;;;;;;;10.80;7.63;;;19.60;99.60;;;;;;5053039;28;20104;-38
2021/08/03 09:15:35;;;;;;;9.98;7.63;;;19.60;99.70;;;;;;5051552;28;20017;-42
2021/08/03 09:18:17;;;;;;;10.10;7.07;;;19.60;99.90;;;;;;5051877;28;20044;-43
2021/08/03 09:20:47;;;;;;;9.15;5.75;;;19.70;99.70;;;;;;5050762;28;20047;-43
2021/08/03 09:23:15;;;;;;;9.07;6.63;;;19.80;99.50;;;;;;5050532;28;20021;-42
2021/08/03 09:26:00;;;;;;;8.32;6.15;;;19.80;99.40;;;;;;5049713;28;20268;-42
2021/08/03 09:28:27;;;;;;;7.28;5.93;;;19.90;99.30;;;;;;5049109;28;20021;-42
2021/08/03 09:30:54;;;;;;;9.75;6.93;;;20.10;99.20;;;;;;5050346;28;20389;-43
2021/08/03 09:33:30;;;;;;;8.15;6.90;;;20.20;99.00;;;;;;5049577;28;20021;-43
2021/08/03 09:36:00;;;;;;;7.25;5.60;;;20.30;98.90;;;;;;5049401;28;20163;-42
2021/08/03 09:38:27;;;;;;;7.57;6.30;;;20.30;98.80;;;;;;5049243;28;20530;-42
2021/08/03 09:41:08;;;;;;;9.13;6.20;;;20.40;98.70;;;;;;5049898;28;20021;-43
2021/08/03 09:43:42;;;;;;;6.13;5.53;;;20.50;98.60;;;;;;5049436;28;20021;-43
2021/08/03 09:46:38;;;;;;;7.20;5.80;;;20.60;98.50;;;;;;5051177;28;20029;-41
2021/08/03 09:49:09;;;;;;;10.70;7.40;;;20.70;98.60;;;;;;5050085;28;20423;-42
2021/08/03 09:51:38;;;;;;;11.30;8.27;;;20.80;98.00;;;;;;5048711;28;20040;-41
2021/08/03 09:54:06;;;;;;;9.93;7.20;;;20.90;97.90;;;;;;5050221;28;20025;-42
2021/08/03 09:56:36;;;;;;;9.98;7.00;;;20.90;97.70;;;;;;5048865;28;20087;-42
2021/08/03 09:59:09;;;;;;;7.82;6.70;;;21.00;97.70;;;;;;5050066;28;20094;-41
2021/08/03 10:01:44;;;;;;;9.43;7.00;;;21.10;97.60;;;;;;5049040;28;20029;-42
2021/08/03 10:07:31;;;;;;;8.18;6.80;;;21.30;97.50;;;;;;5049510;28;20039;-42
2021/08/03 10:09:58;;;;;;;12.35;7.35;;;21.40;97.40;;;;;;5049173;28;20440;-42
2021/08/03 10:12:24;;;;;;;8.93;6.80;;;21.50;97.20;;;;;;5048558;28;20393;-41
2021/08/03 10:14:50;;;;;;;7.70;6.07;;;21.60;97.30;;;;;;5049855;28;20020;-42
2021/08/03 10:17:16;;;;;;;9.38;7.22;;;21.70;97.20;;;;;;5048931;28;20017;-42
2021/08/03 10:19:43;;;;;;;7.95;6.97;;;21.90;97.20;;;;;;5048266;28;20047;-42
2021/08/03 10:22:16;;;;;;;8.90;6.95;;;21.90;97.00;;;;;;5048195;28;20044;-42
2021/08/03 10:24:58;;;;;;;9.50;8.50;;;22.00;97.00;;;;;;5047228;28;20460;-41
2021/08/03 10:27:47;;;;;;;8.80;7.90;;;22.00;96.80;;;;;;5043983;28;20031;-42
2021/08/03 10:30:34;;;;;;;12.32;8.15;;;22.10;96.70;;;;;;5042671;28;20096;-41
2021/08/03 10:33:11;;;;;;;9.02;8.05;;;22.20;96.70;;;;;;5048731;28;20021;-41
2021/08/03 10:35:47;;;;;;;11.15;9.07;;;22.20;96.70;;;;;;5048269;28;20388;-43
2021/08/03 10:38:18;;;;;;;10.23;9.05;;;22.40;96.70;;;;;;5048800;28;20021;-42
2021/08/03 10:40:49;;;;;;;12.13;10.05;;;22.40;96.50;;;;;;5048024;28;20017;-41
2021/08/03 10:43:24;;;;;;;10.15;8.77;;;22.50;96.40;;;;;;5049141;28;20036;-39
2021/08/03 10:46:11;;;;;;;11.40;9.70;;;22.60;96.30;;;;;;5047483;28;20484;-44
2021/08/03 10:48:47;;;;;;;13.38;11.82;;;22.60;96.30;;;;;;5047613;28;20025;-43
2021/08/03 10:51:15;;;;;;;13.10;11.70;;;22.60;96.00;;;;;;5048082;28;20028;-43
2021/08/03 10:54:18;;;;;;;13.02;11.63;;;22.60;95.90;;;;;;5059824;28;20021;-43
2021/08/03 10:56:58;;;;;;;13.82;12.32;;;22.60;95.90;;;;;;5055643;28;20078;-42
2021/08/03 10:59:30;;;;;;;15.18;13.57;;;22.70;95.90;;;;;;5048059;28;20434;-44
2021/08/03 11:01:56;;;;;;;14.75;13.32;;;22.70;95.90;;;;;;5048231;28;20017;-44
2021/08/03 11:04:40;;;;;;;16.17;14.30;;;22.80;95.90;;;;;;5048629;28;20077;-41
2021/08/03 11:07:24;;;;;;;13.90;12.40;;;22.80;95.70;;;;;;5047791;28;20108;-43
2021/08/03 11:09:53;;;;;;;14.65;13.15;;;22.80;95.70;;;;;;5048065;28;20284;-42
2021/08/03 11:12:45;;;;;;;13.90;12.55;;;22.80;95.60;;;;;;5047733;28;20036;-42
2021/08/03 11:15:22;;;;;;;14.88;13.10;;;22.80;95.80;;;;;;5048583;28;20023;-42
2021/08/03 11:17:59;;;;;;;14.32;12.82;;;22.70;95.50;;;;;;5047943;28;20029;-40
2021/08/03 11:20:33;;;;;;;14.40;12.90;;;22.60;95.60;;;;;;5027797;28;20060;-43
2021/08/03 11:23:03;;;;;;;15.60;12.93;;;22.40;95.40;;;;;;5044535;28;20029;-42
2021/08/03 11:25:29;;;;;;;13.80;12.27;;;22.30;95.60;;;;;;5047078;28;20075;-43
2021/08/03 11:28:16;;;;;;;13.43;12.10;;;22.10;95.70;;;;;;5047990;28;20039;-42
2021/08/03 11:30:45;;;;;;;14.27;12.30;;;21.90;95.90;;;;;;5035755;28;20426;-42
2021/08/03 11:33:15;;;;;;;13.48;12.05;;;21.80;96.10;;;;;;5046790;28;20028;-41
2021/08/03 11:35:41;;;;;;;15.30;12.27;;;21.60;96.30;;;;;;5046992;28;20045;-43
2021/08/03 11:38:12;;;;;;;12.93;11.60;;;21.50;96.40;;;;;;5048024;28;20028;-44
2021/08/03 11:40:40;;;;;;;12.73;11.35;;;21.30;96.50;;;;;;5047779;28;20347;-40
2021/08/03 11:43:06;;;;;;;12.60;11.20;;;21.20;96.50;;;;;;5048501;28;20067;-41
2021/08/03 11:45:36;;;;;;;13.07;11.68;;;21.10;96.60;;;;;;5047925;28;20068;-43
2021/08/03 11:48:04;;;;;;;14.35;11.48;;;21.00;96.60;;;;;;5048074;28;20021;-43
2021/08/03 11:50:29;;;;;;;14.85;12.13;;;20.90;96.70;;;;;;5047796;28;20029;-42
2021/08/03 11:53:16;;;;;;;16.38;11.95;;;20.90;96.70;;;;;;5047927;28;20074;-42
2021/08/03 11:55:47;;;;;;;13.00;11.70;;;20.90;96.70;;;;;;5046825;28;20033;-42
2021/08/03 11:58:24;;;;;;;14.02;12.57;;;20.80;96.70;;;;;;5049102;28;20060;-42
2021/08/03 12:00:54;;;;;;;13.20;11.50;;;20.80;96.80;;;;;;5047565;28;20116;-42
2021/08/03 12:03:35;;;;;;;13.68;12.32;;;20.80;96.80;;;;;;5047600;28;20075;-42
2021/08/03 12:06:01;;;;;;;13.50;12.10;;;20.80;96.90;;;;;;5048145;28;20029;-42
2021/08/03 12:08:39;;;;;;;13.05;11.65;;;20.80;96.90;;;;;;5046155;28;20128;-42
2021/08/03 12:11:05;;;;;;;14.00;11.57;;;20.80;96.90;;;;;;5048481;28;20027;-42
2021/08/03 12:13:32;;;;;;;13.02;11.55;;;20.80;96.90;;;;;;5046580;28;20045;-42
2021/08/03 12:16:01;;;;;;;12.15;10.70;;;20.80;96.90;;;;;;5047178;28;20048;-42
2021/08/03 12:18:36;;;;;;;10.13;9.13;;;20.80;96.90;;;;;;5047283;28;20500;-42
2021/08/03 12:21:04;;;;;;;11.32;10.20;;;20.80;96.90;;;;;;5051419;28;20078;-42
2021/08/03 12:23:35;;;;;;;11.95;9.50;;;20.80;96.90;;;;;;5050475;28;20061;-44
2021/08/03 12:26:01;;;;;;;11.60;10.00;;;20.80;96.80;;;;;;5051178;28;20025;-44
2021/08/03 12:28:43;;;;;;;12.88;10.93;;;20.80;96.80;;;;;;5050964;28;20025;-43
2021/08/03 12:31:31;;;;;;;12.02;9.98;;;20.70;96.70;;;;;;5049424;28;20039;-43
2021/08/03 12:34:16;;;;;;;12.77;10.23;;;20.70;96.70;;;;;;5051870;28;20041;-43
2021/08/03 12:36:51;;;;;;;13.02;11.68;;;20.70;96.60;;;;;;5039214;28;20484;-44
2021/08/03 12:39:31;;;;;;;15.07;10.98;;;20.70;96.60;;;;;;5051112;28;20075;-42
2021/08/03 12:42:34;;;;;;;13.75;11.18;;;20.70;96.60;;;;;;5041976;28;20383;-42
2021/08/03 12:45:11;;;;;;;;;;;20.60;96.50;;;;;;5050537;28;20045;-39
2021/08/03 12:47:36;;;;;;;13.23;10.60;;;20.60;96.70;;;;;;5051431;28;19955;-42
2021/08/03 12:50:08;;;;;;;12.38;11.00;;;20.50;96.70;;;;;;5050565;28;20078;-42
2021/08/03 12:52:34;;;;;;;12.88;10.57;;;20.50;96.70;;;;;;5050086;28;20519;-41
2021/08/03 12:55:03;;;;;;;14.05;11.70;;;20.40;96.80;;;;;;5051170;28;20027;-42
2021/08/03 12:57:53;;;;;;;13.15;11.35;;;20.40;96.80;;;;;;5050821;28;20021;-42
2021/08/03 13:00:43;;;;;;;14.18;12.50;;;20.40;96.70;;;;;;5051349;28;20025;-42
2021/08/03 13:03:11;;;;;;;14.25;12.48;;;20.30;96.60;;;;;;5051127;28;20119;-42
2021/08/03 13:05:37;;;;;;;13.35;11.80;;;20.30;96.60;;;;;;5048665;28;20535;-42
2021/08/03 13:08:07;;;;;;;15.85;13.52;;;20.20;96.60;;;;;;5051218;28;20024;-41